Time;durP1;ratioP1;P1;durP2;ratioP2;P2;SDS_P1;SDS_P2;PMS_P1;PMS_P2;Temp;Humidity;BMP_temperature;BMP_pressure;BME280_temperature;BME280_humidity;BME280_pressure;Samples;Min_cycle;Max_cycle;Signal;HPM_P1;HPM_P2
2023/05/20 00:00:26;;;;;;;6.15;3.08;;;;;;;12.38;62.65;102155.19;5035286;28;20033;-83
2023/05/20 00:02:51;;;;;;;5.95;3.35;;;;;;;12.39;62.58;102143.59;5052327;28;20539;-83
2023/05/20 00:05:16;;;;;;;5.45;3.35;;;;;;;12.35;63.28;102149.97;5055021;28;20032;-83
2023/05/20 00:07:42;;;;;;;4.95;3.65;;;;;;;12.27;63.86;102152.06;5059867;28;20052;-83
2023/05/20 00:10:07;;;;;;;4.90;3.70;;;;;;;12.23;64.44;102160.22;5049809;28;20025;-83
2023/05/20 00:12:33;;;;;;;5.68;3.95;;;;;;;12.15;64.76;102147.16;5060165;28;20048;-84
2023/05/20 00:14:59;;;;;;;7.20;3.53;;;;;;;12.11;65.18;102159.75;5038259;28;20886;-83
2023/05/20 00:17:26;;;;;;;6.55;4.03;;;;;;;12.11;65.56;102159.75;5054023;28;20054;-83
2023/05/20 00:19:52;;;;;;;5.57;3.67;;;;;;;12.05;66.26;102159.97;5052371;28;20082;-83
2023/05/20 00:22:17;;;;;;;6.65;3.55;;;;;;;11.99;66.50;102159.31;5054311;28;20017;-83
2023/05/20 00:24:42;;;;;;;5.38;3.63;;;;;;;12.04;66.67;102147.56;5044331;28;20083;-83
2023/05/20 00:27:08;;;;;;;8.18;4.00;;;;;;;11.95;67.20;102147.88;5060207;28;20413;-83
2023/05/20 00:29:33;;;;;;;6.95;4.05;;;;;;;11.90;67.53;102150.72;5049786;28;20127;-84
2023/05/20 00:31:59;;;;;;;6.90;4.40;;;;;;;11.82;67.87;102144.75;5057117;28;20799;-82
2023/05/20 00:34:24;;;;;;;7.05;4.15;;;;;;;11.83;68.14;102148.31;5062184;28;20036;-83
2023/05/20 00:36:50;;;;;;;8.23;4.35;;;;;;;11.80;68.80;102138.59;5062007;28;20024;-83
2023/05/20 00:39:16;;;;;;;5.82;4.68;;;;;;;11.75;69.35;102150.38;5038774;28;20021;-83
2023/05/20 00:41:41;;;;;;;7.25;4.18;;;;;;;11.71;69.35;102150.47;5034370;28;20104;-83
2023/05/20 00:44:06;;;;;;;6.20;4.38;;;;;;;11.68;69.69;102150.56;5057377;28;20028;-83
2023/05/20 00:46:32;;;;;;;8.88;4.43;;;;;;;11.63;69.88;102152.53;5047036;28;20028;-82
2023/05/20 00:48:57;;;;;;;9.07;4.28;;;;;;;11.67;70.42;102147.97;5051371;28;20045;-83
2023/05/20 00:51:23;;;;;;;9.60;4.63;;;;;;;11.59;70.74;102150.03;5047527;28;20032;-83
2023/05/20 00:53:49;;;;;;;5.55;3.97;;;;;;;11.63;70.57;102146.34;5062090;28;20052;-83
2023/05/20 00:56:15;;;;;;;6.72;4.70;;;;;;;11.58;71.07;102145.59;5044944;28;20104;-83
2023/05/20 00:58:40;;;;;;;5.78;4.32;;;;;;;11.47;71.33;102149.50;5036503;28;20209;-83
2023/05/20 01:01:06;;;;;;;7.75;4.80;;;;;;;11.45;71.66;102140.72;5056167;28;20043;-83
2023/05/20 01:03:31;;;;;;;10.35;4.78;;;;;;;11.42;72.14;102148.81;5060161;28;20461;-83
2023/05/20 01:05:57;;;;;;;6.80;4.50;;;;;;;11.46;72.14;102138.91;5049761;28;20029;-83
2023/05/20 01:08:23;;;;;;;7.40;4.47;;;;;;;11.39;72.85;102146.22;5057337;28;20020;-82
2023/05/20 01:10:57;;;;;;;8.38;4.50;;;;;;;11.34;73.18;102142.84;5062747;28;20307;-83
2023/05/20 01:13:26;;;;;;;8.73;5.18;;;;;;;11.32;73.21;102142.03;5055213;28;20350;-83
2023/05/20 01:15:54;;;;;;;9.23;4.50;;;;;;;11.24;73.92;102136.06;5062133;28;20048;-83
2023/05/20 01:18:24;;;;;;;7.47;4.65;;;;;;;11.17;74.28;102138.09;5048714;28;20104;-83
2023/05/20 01:20:52;;;;;;;6.00;4.50;;;;;;;11.22;74.11;102138.78;5050482;28;20134;-83
2023/05/20 01:23:18;;;;;;;9.57;4.82;;;;;;;11.12;74.88;102132.03;5056584;28;20057;-83
2023/05/20 01:25:43;;;;;;;7.85;4.90;;;;;;;11.09;75.15;102140.13;5055234;28;20108;-83
2023/05/20 01:28:16;;;;;;;7.45;5.30;;;;;;;11.12;75.13;102145.38;5053588;28;20123;-84
2023/05/20 01:30:50;;;;;;;8.15;5.38;;;;;;;11.07;75.29;102149.06;5058568;28;20028;-83
2023/05/20 01:33:19;;;;;;;8.02;5.30;;;;;;;11.01;75.72;102144.81;5059204;28;20297;-82
2023/05/20 01:35:46;;;;;;;8.02;4.88;;;;;;;10.96;76.23;102139.66;5053442;28;20052;-82
2023/05/20 01:38:13;;;;;;;8.80;5.03;;;;;;;10.98;76.56;102139.59;5055714;28;20021;-83
2023/05/20 01:40:40;;;;;;;7.10;5.10;;;;;;;11.01;76.18;102130.63;5057058;28;20079;-83
2023/05/20 01:43:06;;;;;;;10.43;5.13;;;;;;;10.91;76.54;102125.59;5059474;28;20024;-83
2023/05/20 01:45:32;;;;;;;8.80;5.32;;;;;;;10.86;77.21;102127.53;5039744;28;20059;-83
2023/05/20 01:47:57;;;;;;;8.45;5.50;;;;;;;10.80;77.51;102119.75;5060527;28;20520;-83
2023/05/20 01:50:22;;;;;;;8.23;4.88;;;;;;;10.87;77.09;102128.41;5058829;28;20037;-83
2023/05/20 01:52:48;;;;;;;9.77;5.35;;;;;;;10.83;77.60;102127.63;5050577;28;20462;-82
2023/05/20 01:55:13;;;;;;;7.03;5.13;;;;;;;10.80;77.99;102127.72;5059409;28;20021;-82
2023/05/20 01:57:38;;;;;;;6.85;5.40;;;;;;;10.85;77.41;102117.78;5055388;28;20025;-83
2023/05/20 02:00:05;;;;;;;8.98;5.65;;;;;;;10.84;78.10;102124.06;5053512;28;20034;-83
2023/05/20 02:02:30;;;;;;;10.02;5.65;;;;;;;10.72;78.05;102122.63;5043004;28;20100;-83
2023/05/20 02:04:56;;;;;;;7.70;5.53;;;;;;;10.75;78.64;102112.81;5052733;28;20055;-82
2023/05/20 02:07:21;;;;;;;6.35;5.32;;;;;;;10.62;78.97;102112.34;5054112;28;20104;-82
2023/05/20 02:09:47;;;;;;;9.20;5.40;;;;;;;10.68;78.50;102110.34;5057348;28;20032;-83
2023/05/20 02:12:15;;;;;;;9.57;6.28;;;;;;;10.56;79.71;102120.50;5055286;28;20072;-82
2023/05/20 02:14:45;;;;;;;7.57;5.47;;;;;;;10.50;80.05;102120.69;5054648;28;20047;-83
2023/05/20 02:17:13;;;;;;;8.57;5.88;;;;;;;10.54;79.99;102117.88;5027825;28;20029;-83
2023/05/20 02:19:38;;;;;;;6.15;5.45;;;;;;;10.54;80.03;102119.69;5058118;28;20509;-83
2023/05/20 02:22:05;;;;;;;11.07;6.35;;;;;;;10.41;80.63;102108.53;5050593;28;20478;-84
2023/05/20 02:24:30;;;;;;;7.53;5.57;;;;;;;10.47;80.55;102114.53;5051403;28;20498;-84
2023/05/20 02:26:57;;;;;;;8.15;5.68;;;;;;;10.40;81.50;102114.75;5054608;28;20028;-84
2023/05/20 02:29:23;;;;;;;9.07;6.03;;;;;;;10.42;81.17;102112.94;5053746;28;20054;-84
2023/05/20 02:31:48;;;;;;;7.43;5.95;;;;;;;10.33;82.22;102111.41;5056257;28;20474;-84
2023/05/20 02:34:17;;;;;;;9.13;5.78;;;;;;;10.34;81.99;102122.94;5029343;28;20032;-83
2023/05/20 02:36:43;;;;;;;8.65;6.00;;;;;;;10.26;82.35;102112.50;5038441;28;20795;-84
2023/05/20 02:39:08;;;;;;;8.55;5.95;;;;;;;10.21;82.47;102112.63;5035936;28;20020;-82
2023/05/20 02:41:34;;;;;;;8.55;5.80;;;;;;;10.21;82.89;102109.09;5053379;28;20028;-81
2023/05/20 02:43:59;;;;;;;9.57;6.13;;;;;;;10.24;82.55;102116.94;5060604;28;20509;-82
2023/05/20 02:46:25;;;;;;;11.32;6.28;;;;;;;10.18;83.22;102111.81;5059241;28;20097;-83
2023/05/20 02:48:50;;;;;;;10.95;6.45;;;;;;;10.17;83.24;102115.41;5035379;28;20031;-83
2023/05/20 02:51:15;;;;;;;9.85;6.07;;;;;;;10.17;83.48;102108.28;5053902;28;20028;-83
2023/05/20 02:53:41;;;;;;;8.13;5.72;;;;;;;10.09;83.67;102101.47;5049588;28;20039;-84
2023/05/20 02:56:07;;;;;;;9.05;6.07;;;;;;;10.08;83.60;102100.59;5056691;28;20078;-83
2023/05/20 02:58:34;;;;;;;7.65;6.32;;;;;;;10.16;83.58;102103.03;5048004;28;20099;-83
2023/05/20 03:01:00;;;;;;;11.25;6.68;;;;;;;10.07;84.36;102097.94;5054097;28;20030;-84
2023/05/20 03:03:26;;;;;;;8.55;6.50;;;;;;;10.10;84.32;102095.22;5051287;28;20115;-82
2023/05/20 03:05:52;;;;;;;8.70;6.30;;;;;;;10.09;84.20;102099.66;5054295;28;20059;-83
2023/05/20 03:08:19;;;;;;;9.98;6.55;;;;;;;10.01;84.88;102093.69;5059904;28;20059;-83
2023/05/20 03:10:44;;;;;;;8.85;6.20;;;;;;;9.98;85.26;102089.31;5048883;28;20028;-83
2023/05/20 03:13:14;;;;;;;9.20;6.43;;;;;;;10.07;85.16;102097.94;5053526;28;20063;-84
2023/05/20 03:15:41;;;;;;;7.75;6.30;;;;;;;9.99;85.60;102095.53;5056404;28;20691;-83
2023/05/20 03:18:09;;;;;;;11.63;6.57;;;;;;;9.96;85.69;102099.16;5060958;28;20051;-84
2023/05/20 03:20:35;;;;;;;11.15;6.63;;;;;;;9.97;85.47;102095.56;5041894;28;20093;-82
2023/05/20 03:23:01;;;;;;;9.75;6.32;;;;;;;9.98;86.10;102102.63;5049977;28;20041;-82
2023/05/20 03:25:27;;;;;;;8.77;6.32;;;;;;;9.96;86.05;102095.63;5059350;28;20028;-82
2023/05/20 03:27:52;;;;;;;8.00;6.70;;;;;;;9.92;86.33;102092.16;5054323;28;20641;-82
2023/05/20 03:30:18;;;;;;;9.07;6.90;;;;;;;9.96;86.08;102090.28;5063752;28;20029;-83
2023/05/20 03:32:43;;;;;;;11.02;6.75;;;;;;;9.93;86.17;102095.69;5040134;28;20017;-83
2023/05/20 03:35:09;;;;;;;8.35;6.90;;;;;;;9.89;86.31;102086.91;5048317;28;20025;-83
2023/05/20 03:37:35;;;;;;;11.48;6.90;;;;;;;9.85;86.51;102090.59;5027240;28;20039;-83
2023/05/20 03:40:00;;;;;;;8.75;6.50;;;;;;;9.81;87.06;102090.72;5039451;28;20104;-82
2023/05/20 03:42:26;;;;;;;8.52;6.68;;;;;;;9.82;87.55;102090.66;5053254;28;20102;-83
2023/05/20 03:44:51;;;;;;;10.55;6.35;;;;;;;9.84;87.63;102093.28;5045379;28;20021;-83
2023/05/20 03:47:16;;;;;;;9.27;6.60;;;;;;;9.84;87.76;102095.97;5027158;28;20029;-84
2023/05/20 03:49:42;;;;;;;7.13;6.30;;;;;;;9.86;87.76;102096.78;5050309;28;20024;-82
2023/05/20 03:52:07;;;;;;;8.38;6.43;;;;;;;9.79;87.92;102096.09;5045421;28;20029;-83
2023/05/20 03:54:34;;;;;;;8.82;6.53;;;;;;;9.75;88.12;102086.44;5045217;28;20157;-83
2023/05/20 03:56:59;;;;;;;9.13;6.32;;;;;;;9.74;88.44;102092.69;5052516;28;20581;-83
2023/05/20 03:59:26;;;;;;;11.35;7.03;;;;;;;9.81;87.88;102082.75;5060895;28;20532;-82
2023/05/20 04:01:51;;;;;;;8.27;6.45;;;;;;;9.76;88.85;102080.22;5045492;28;20278;-82
2023/05/20 04:04:17;;;;;;;8.80;6.22;;;;;;;9.80;88.67;102086.31;5052868;28;20033;-82
2023/05/20 04:06:42;;;;;;;7.55;5.88;;;;;;;9.79;88.66;102084.59;5044908;28;20474;-82
2023/05/20 04:09:07;;;;;;;9.43;6.63;;;;;;;9.79;88.96;102088.13;5034560;28;20035;-84
2023/05/20 04:11:33;;;;;;;10.73;6.72;;;;;;;9.78;89.34;102086.38;5054980;28;20052;-83
2023/05/20 04:13:59;;;;;;;8.85;6.90;;;;;;;9.78;89.28;102096.09;5046498;28;20486;-83
2023/05/20 04:16:24;;;;;;;9.73;6.57;;;;;;;9.77;89.35;102100.56;5053995;28;20036;-83
2023/05/20 04:18:51;;;;;;;9.95;7.13;;;;;;;9.74;90.05;102103.31;5056616;28;20848;-84
2023/05/20 04:21:18;;;;;;;10.55;7.20;;;;;;;9.79;90.11;102098.75;5056946;28;20381;-83
2023/05/20 04:23:43;;;;;;;10.20;6.80;;;;;;;9.80;90.29;102099.63;5058306;28;20044;-83
2023/05/20 04:26:09;;;;;;;10.32;6.85;;;;;;;9.79;90.22;102105.84;5055514;28;20385;-84
2023/05/20 04:28:36;;;;;;;8.18;6.80;;;;;;;9.80;90.58;102102.28;5042069;28;20036;-83
2023/05/20 04:31:05;;;;;;;9.38;7.03;;;;;;;9.79;90.65;102097.88;5061079;28;20093;-83
2023/05/20 04:33:31;;;;;;;8.48;6.63;;;;;;;9.83;90.43;102099.53;5061591;28;20230;-84
2023/05/20 04:35:58;;;;;;;9.38;6.63;;;;;;;9.88;90.70;102097.63;5050116;28;20043;-84
2023/05/20 04:38:28;;;;;;;8.98;6.53;;;;;;;9.91;90.46;102101.06;5056491;28;20025;-83
2023/05/20 04:40:57;;;;;;;7.85;6.97;;;;;;;9.96;90.45;102101.81;5062102;28;20035;-84
2023/05/20 04:43:28;;;;;;;10.27;6.72;;;;;;;10.02;90.40;102094.56;5048668;28;20093;-83
2023/05/20 04:45:57;;;;;;;8.73;6.78;;;;;;;10.01;90.52;102093.69;5056080;28;20024;-83
2023/05/20 04:48:23;;;;;;;9.43;6.82;;;;;;;10.06;90.40;102097.09;5045955;28;20112;-83
2023/05/20 04:50:49;;;;;;;9.93;7.43;;;;;;;10.14;90.21;102107.50;5058939;28;20512;-82
2023/05/20 04:53:16;;;;;;;10.95;6.70;;;;;;;10.19;90.01;102110.91;5060316;28;20032;-84
2023/05/20 04:55:42;;;;;;;8.00;6.60;;;;;;;10.17;89.73;102095.00;5056738;28;20028;-83
2023/05/20 04:58:14;;;;;;;11.20;6.32;;;;;;;10.26;90.07;102101.00;5056064;28;20020;-83
2023/05/20 05:00:41;;;;;;;9.52;6.35;;;;;;;10.33;89.81;102100.78;5060914;28;20045;-82
2023/05/20 05:03:07;;;;;;;8.48;6.78;;;;;;;10.41;89.34;102095.22;5035836;28;20063;-82
2023/05/20 05:05:34;;;;;;;8.85;6.63;;;;;;;10.49;89.18;102095.84;5058071;28;20085;-83
2023/05/20 05:07:59;;;;;;;10.30;6.85;;;;;;;10.58;89.23;102090.25;5051880;28;20693;-83
2023/05/20 05:10:25;;;;;;;10.15;6.40;;;;;;;10.64;88.78;102084.72;5057329;28;20107;-83
2023/05/20 05:12:50;;;;;;;9.88;6.35;;;;;;;10.73;88.02;102094.22;5059719;28;20040;-83
2023/05/20 05:15:15;;;;;;;9.60;6.90;;;;;;;10.82;87.87;102077.94;5055360;28;20519;-83
2023/05/20 05:17:40;;;;;;;6.90;6.10;;;;;;;10.90;87.64;102078.56;5058736;28;20076;-82
2023/05/20 05:20:07;;;;;;;8.05;5.57;;;;;;;10.98;86.85;102087.16;5057244;28;20179;-83
2023/05/20 05:22:35;;;;;;;7.90;6.00;;;;;;;11.08;86.58;102073.56;5056403;28;20032;-82
2023/05/20 05:25:02;;;;;;;8.95;6.13;;;;;;;11.15;86.11;102070.63;5059243;28;20524;-83
2023/05/20 05:27:27;;;;;;;6.40;5.78;;;;;;;11.23;86.07;102073.91;5051689;28;20028;-83
2023/05/20 05:29:52;;;;;;;8.35;6.30;;;;;;;11.36;85.39;102074.34;5059638;28;20024;-84
2023/05/20 05:32:18;;;;;;;11.75;6.40;;;;;;;11.47;85.14;102068.66;5051365;28;20032;-83
2023/05/20 05:34:44;;;;;;;8.93;6.18;;;;;;;11.59;83.97;102075.38;5055974;28;20032;-83
2023/05/20 05:37:09;;;;;;;6.63;5.68;;;;;;;11.71;83.62;102069.59;5056339;28;20016;-85
2023/05/20 05:39:36;;;;;;;10.68;6.82;;;;;;;11.79;83.01;102070.19;5060140;28;20032;-84
2023/05/20 05:42:02;;;;;;;6.93;5.47;;;;;;;11.93;82.06;102067.03;5052785;28;20044;-85
2023/05/20 05:44:28;;;;;;;6.85;5.88;;;;;;;12.03;81.63;102068.41;5058998;28;20026;-83
2023/05/20 05:46:53;;;;;;;7.45;5.40;;;;;;;12.06;80.62;102059.44;5036633;28;20029;-83
2023/05/20 05:49:18;;;;;;;8.25;5.63;;;;;;;12.28;80.94;102076.38;5054400;28;20055;-83
2023/05/20 05:51:43;;;;;;;7.03;5.55;;;;;;;12.43;79.84;102078.47;5055666;28;20385;-84
2023/05/20 05:54:09;;;;;;;6.75;5.47;;;;;;;12.57;79.14;102074.38;5053043;28;20032;-84
2023/05/20 05:56:34;;;;;;;8.80;5.65;;;;;;;12.76;78.52;102078.06;5054516;28;20043;-83
2023/05/20 05:59:00;;;;;;;10.70;5.65;;;;;;;12.83;77.38;102065.31;5057633;28;20042;-83
2023/05/20 06:01:25;;;;;;;6.75;5.20;;;;;;;13.07;75.77;102079.47;5050977;28;20036;-85
2023/05/20 06:03:50;;;;;;;6.35;5.22;;;;;;;13.18;75.95;102074.56;5034390;28;20067;-83
2023/05/20 06:06:15;;;;;;;6.00;5.38;;;;;;;13.33;74.77;102068.56;5055342;28;20039;-83
2023/05/20 06:08:41;;;;;;;5.88;5.28;;;;;;;13.43;74.17;102069.91;5047170;28;20025;-83
2023/05/20 06:11:07;;;;;;;8.32;5.07;;;;;;;13.62;74.05;102069.09;5046768;28;20093;-84
2023/05/20 06:13:35;;;;;;;8.00;4.70;;;;;;;13.69;72.60;102070.59;5035689;28;20020;-83
2023/05/20 06:16:00;;;;;;;6.82;5.10;;;;;;;13.81;72.59;102059.34;5032586;28;20033;-83
2023/05/20 06:18:26;;;;;;;7.13;5.20;;;;;;;14.01;72.00;102062.94;5048910;28;20508;-84
2023/05/20 06:20:55;;;;;;;7.57;5.18;;;;;;;14.10;70.71;102068.72;5042392;28;20024;-83
2023/05/20 06:23:21;;;;;;;7.55;4.93;;;;;;;14.30;69.76;102061.56;5045143;28;20060;-82
2023/05/20 06:25:47;;;;;;;6.53;5.43;;;;;;;14.38;69.26;102043.31;5046648;28;20036;-83
2023/05/20 06:28:13;;;;;;;5.93;4.70;;;;;;;14.55;70.06;102045.22;5048692;28;20020;-84
2023/05/20 06:30:40;;;;;;;6.63;4.82;;;;;;;14.70;68.37;102053.38;5054685;28;20028;-82
2023/05/20 06:33:05;;;;;;;5.95;4.80;;;;;;;14.73;67.57;102049.69;5041798;28;20114;-82
2023/05/20 06:35:33;;;;;;;5.10;4.60;;;;;;;14.68;66.27;102051.72;5043229;28;20032;-83
2023/05/20 06:37:59;;;;;;;7.03;4.50;;;;;;;14.74;65.92;102043.38;5052565;28;20077;-84
2023/05/20 06:40:26;;;;;;;7.00;4.60;;;;;;;14.82;65.94;102048.34;5054022;28;20111;-83
2023/05/20 06:42:51;;;;;;;6.80;4.57;;;;;;;14.94;65.94;102040.56;5026292;28;20040;-83
2023/05/20 06:45:16;;;;;;;5.28;4.38;;;;;;;15.10;65.58;102039.81;5043751;28;20025;-83
2023/05/20 06:47:46;;;;;;;4.75;4.18;;;;;;;15.23;65.22;102032.00;5054550;28;20108;-84
2023/05/20 06:50:12;;;;;;;6.80;4.72;;;;;;;15.39;64.75;102031.13;5055516;28;20044;-84
2023/05/20 06:52:38;;;;;;;6.30;4.10;;;;;;;15.65;64.25;102028.91;5045848;28;20032;-83
2023/05/20 06:55:04;;;;;;;5.80;4.07;;;;;;;15.77;63.19;102017.53;5042573;28;20039;-84
2023/05/20 06:57:29;;;;;;;6.35;4.60;;;;;;;15.79;60.88;102025.47;5042510;28;20017;-84
2023/05/20 06:59:55;;;;;;;6.10;4.30;;;;;;;16.00;61.80;102024.31;5035391;28;20048;-83
2023/05/20 07:02:21;;;;;;;7.25;3.85;;;;;;;16.04;60.23;102028.56;5027625;28;20028;-84
2023/05/20 07:04:46;;;;;;;6.20;4.50;;;;;;;16.02;59.71;102019.75;5032023;28;20032;-84
2023/05/20 07:07:12;;;;;;;7.32;4.03;;;;;;;16.31;59.52;102028.88;5047042;28;20025;-83
2023/05/20 07:09:38;;;;;;;4.50;3.78;;;;;;;16.29;57.98;102033.44;5059302;28;20043;-83
2023/05/20 07:12:06;;;;;;;6.32;4.03;;;;;;;16.51;57.45;102034.91;5055054;28;20105;-83
2023/05/20 07:14:32;;;;;;;5.00;3.65;;;;;;;16.62;58.08;102019.06;5052095;28;20377;-84
2023/05/20 07:16:57;;;;;;;4.72;3.58;;;;;;;17.13;57.17;102019.66;5052560;28;20508;-83
2023/05/20 07:19:22;;;;;;;6.38;3.75;;;;;;;17.23;55.52;102020.00;5052283;28;20040;-84
2023/05/20 07:21:48;;;;;;;5.10;3.90;;;;;;;17.35;54.56;102012.03;5057810;28;20028;-83
2023/05/20 07:24:14;;;;;;;5.18;3.90;;;;;;;17.61;54.22;102009.56;5033311;28;20028;-83
2023/05/20 07:26:40;;;;;;;6.35;3.40;;;;;;;17.88;52.88;102020.47;5050128;28;20025;-83
2023/05/20 07:29:05;;;;;;;5.43;3.42;;;;;;;18.21;52.27;102011.22;5052567;28;20024;-83
2023/05/20 07:31:31;;;;;;;6.00;3.55;;;;;;;18.56;50.49;102012.47;5026207;28;20071;-83
2023/05/20 07:33:56;;;;;;;6.63;3.63;;;;;;;18.83;48.97;102009.81;5041121;28;20112;-83
2023/05/20 07:36:22;;;;;;;4.75;3.30;;;;;;;18.98;48.47;102007.03;5058161;28;20116;-83
2023/05/20 07:38:47;;;;;;;5.60;3.72;;;;;;;19.30;48.18;102005.69;5060027;28;20638;-83
2023/05/20 07:41:13;;;;;;;4.07;3.22;;;;;;;19.40;48.11;101989.72;5048654;28;20401;-83
2023/05/20 07:43:38;;;;;;;5.47;3.75;;;;;;;19.88;47.44;102001.59;5046854;28;20028;-82
2023/05/20 07:46:03;;;;;;;6.00;3.72;;;;;;;20.19;46.26;101988.59;5022589;28;20040;-83
2023/05/20 07:48:29;;;;;;;5.35;3.78;;;;;;;20.39;44.37;102003.31;5053185;28;20078;-82
2023/05/20 07:50:57;;;;;;;4.65;3.50;;;;;;;20.49;44.35;101995.44;5024611;28;20029;-82
2023/05/20 07:53:23;;;;;;;6.78;3.30;;;;;;;20.86;43.73;101997.09;5023863;28;20070;-82
2023/05/20 07:55:48;;;;;;;4.47;3.42;;;;;;;20.91;43.35;101985.06;5060890;28;20023;-82
2023/05/20 07:58:14;;;;;;;4.63;3.63;;;;;;;21.32;43.36;101982.75;5064810;28;20028;-83
2023/05/20 08:00:39;;;;;;;4.68;3.50;;;;;;;21.66;41.99;101987.34;5054925;28;20739;-83
2023/05/20 08:03:06;;;;;;;5.18;3.45;;;;;;;21.82;41.73;101990.53;5042416;28;20082;-83
2023/05/20 08:05:32;;;;;;;5.80;3.42;;;;;;;21.93;41.60;101982.41;5060610;28;20024;-84
2023/05/20 08:07:57;;;;;;;7.53;3.20;;;;;;;22.34;39.73;101987.19;5058142;28;20066;-84
2023/05/20 08:10:23;;;;;;;7.75;3.30;;;;;;;22.46;38.98;101990.75;5055252;28;20240;-84
2023/05/20 08:12:48;;;;;;;6.05;3.38;;;;;;;22.26;37.63;101994.25;5054709;28;20051;-82
2023/05/20 08:15:14;;;;;;;4.47;2.65;;;;;;;22.19;38.62;101991.16;5038610;28;20530;-82
2023/05/20 08:17:39;;;;;;;4.70;3.47;;;;;;;22.12;37.60;101984.50;5034479;28;20461;-82
2023/05/20 08:20:06;;;;;;;4.47;2.75;;;;;;;22.27;37.92;101985.97;5045986;28;20102;-82
2023/05/20 08:22:32;;;;;;;4.65;2.88;;;;;;;22.71;36.26;101983.28;5044017;28;20025;-81
2023/05/20 08:24:57;;;;;;;5.80;3.15;;;;;;;22.85;36.69;101967.53;5044537;28;20033;-83
2023/05/20 08:27:23;;;;;;;4.90;3.20;;;;;;;23.51;36.56;101978.16;5033774;28;20017;-82
2023/05/20 08:29:48;;;;;;;7.25;3.72;;;;;;;23.51;35.40;101977.31;5046928;28;20017;-82
2023/05/20 08:32:14;;;;;;;4.88;3.28;;;;;;;23.59;34.90;101980.19;5053279;28;20025;-82
2023/05/20 08:34:39;;;;;;;4.05;3.05;;;;;;;23.56;34.79;101973.16;5027302;28;20098;-82
2023/05/20 08:37:04;;;;;;;5.20;3.17;;;;;;;23.65;34.93;101971.53;5057641;28;20023;-82
2023/05/20 08:39:30;;;;;;;5.57;3.20;;;;;;;23.38;36.10;101976.66;5054244;28;20056;-82
2023/05/20 08:41:56;;;;;;;4.80;3.10;;;;;;;24.01;35.37;101974.69;5048199;28;20174;-84
2023/05/20 08:44:23;;;;;;;4.53;3.33;;;;;;;24.30;34.02;101972.91;5033060;28;20029;-83
2023/05/20 08:46:49;;;;;;;5.10;3.38;;;;;;;24.51;34.33;101972.81;5052188;28;20371;-83
2023/05/20 08:49:14;;;;;;;4.10;3.00;;;;;;;25.28;33.80;101961.03;5035050;28;20029;-84
2023/05/20 08:51:41;;;;;;;5.13;2.92;;;;;;;25.38;32.31;101965.63;5037501;28;20798;-83
2023/05/20 08:54:08;;;;;;;5.30;3.30;;;;;;;25.43;32.18;101966.03;5054314;28;20020;-83
2023/05/20 08:56:34;;;;;;;3.95;3.20;;;;;;;25.56;32.37;101961.13;5036074;28;20391;-84
2023/05/20 08:59:00;;;;;;;3.72;3.03;;;;;;;25.62;31.96;101963.22;5058010;28;20096;-83
2023/05/20 09:01:25;;;;;;;4.10;2.70;;;;;;;26.30;31.63;101961.06;5050625;28;20517;-84
2023/05/20 09:03:51;;;;;;;12.27;3.78;;;;;;;26.90;31.58;101949.53;5058051;28;20510;-83
2023/05/20 09:06:19;;;;;;;6.47;2.80;;;;;;;26.61;30.22;101958.00;5034768;28;20132;-82
2023/05/20 09:08:45;;;;;;;3.78;2.83;;;;;;;26.72;30.75;101954.19;5059511;28;20017;-86
2023/05/20 09:11:11;;;;;;;3.17;2.70;;;;;;;27.46;29.89;101942.78;5043970;28;20061;-83
2023/05/20 09:13:36;;;;;;;4.95;2.78;;;;;;;27.77;28.86;101950.50;5050128;28;20033;-83
2023/05/20 09:16:02;;;;;;;4.80;3.17;;;;;;;27.49;28.07;101944.34;5028906;28;20766;-84
2023/05/20 09:18:28;;;;;;;4.97;3.38;;;;;;;27.42;28.91;101943.28;5047897;28;20028;-84
2023/05/20 09:20:54;;;;;;;4.35;2.60;;;;;;;27.68;29.09;101940.53;5056222;28;20039;-83
2023/05/20 09:23:24;;;;;;;3.72;2.92;;;;;;;27.38;28.11;101955.53;5051880;28;20028;-84
2023/05/20 09:25:53;;;;;;;4.43;2.60;;;;;;;27.43;28.78;101937.66;5053048;28;20013;-84
2023/05/20 09:28:25;;;;;;;5.63;2.80;;;;;;;27.20;28.93;101951.00;5053851;28;20551;-84
2023/05/20 09:30:57;;;;;;;3.40;2.87;;;;;;;27.89;28.69;101951.94;5046914;28;20025;-84
2023/05/20 09:33:27;;;;;;;3.80;2.83;;;;;;;28.81;27.80;101946.53;5058021;28;20035;-85
2023/05/20 09:35:52;;;;;;;4.00;3.25;;;;;;;28.76;26.57;101945.16;5042844;28;20033;-84
2023/05/20 09:38:19;;;;;;;4.90;3.17;;;;;;;28.22;27.69;101946.56;5029115;28;20035;-84
2023/05/20 09:40:45;;;;;;;5.00;3.30;;;;;;;27.22;28.22;101959.91;5053969;28;20078;-84
2023/05/20 09:43:11;;;;;;;4.43;3.38;;;;;;;27.07;29.13;101945.06;5054210;28;20060;-86
2023/05/20 09:45:37;;;;;;;4.78;3.22;;;;;;;27.63;28.36;101945.59;5044092;28;20066;-84
2023/05/20 09:48:04;;;;;;;3.42;3.13;;;;;;;27.26;29.15;101938.59;5052329;28;20028;-85
2023/05/20 09:50:30;;;;;;;4.45;3.30;;;;;;;26.67;30.13;101949.19;5061705;28;20025;-84
2023/05/20 09:53:01;;;;;;;3.85;3.35;;;;;;;26.08;30.53;101942.38;5036920;28;20124;-84
2023/05/20 09:55:26;;;;;;;3.50;3.03;;;;;;;24.67;33.29;101944.19;5051231;28;20051;-83
2023/05/20 09:57:53;;;;;;;5.35;3.50;;;;;;;24.34;33.82;101944.41;5051212;28;20024;-83
2023/05/20 10:00:20;;;;;;;3.45;2.97;;;;;;;23.92;33.72;101941.03;5042925;28;20037;-83
2023/05/20 10:02:48;;;;;;;4.57;3.00;;;;;;;23.44;34.60;101919.91;5054548;28;20033;-83
2023/05/20 10:05:22;;;;;;;4.00;3.13;;;;;;;25.27;32.94;101928.50;5030193;28;20107;-83
2023/05/20 10:07:58;;;;;;;4.20;2.80;;;;;;;27.62;30.09;101916.56;5045043;28;20024;-83
2023/05/20 10:10:36;;;;;;;3.65;2.78;;;;;;;28.50;26.96;101926.09;5042048;28;20045;-82
2023/05/20 10:13:13;;;;;;;4.50;2.42;;;;;;;28.38;27.92;101921.97;5053188;28;20048;-83
2023/05/20 10:15:58;;;;;;;4.03;2.47;;;;;;;28.84;27.52;101908.66;5026262;28;20044;-83
2023/05/20 10:18:44;;;;;;;4.47;2.80;;;;;;;30.10;26.38;101914.31;5058996;28;20036;-85
2023/05/20 10:21:17;;;;;;;4.50;2.70;;;;;;;30.55;25.62;101914.56;5053929;28;20354;-83
2023/05/20 10:23:44;;;;;;;3.65;2.30;;;;;;;31.30;24.19;101909.09;5048631;28;20029;-82
2023/05/20 10:26:10;;;;;;;3.28;2.55;;;;;;;30.35;24.41;101905.94;5026134;28;20176;-82
2023/05/20 10:28:39;;;;;;;3.53;2.67;;;;;;;29.99;25.40;101904.59;5055279;28;20473;-83
2023/05/20 10:31:19;;;;;;;8.38;2.92;;;;;;;29.63;25.39;101898.75;5044472;28;20341;-83
2023/05/20 10:33:46;;;;;;;5.13;2.58;;;;;;;28.36;27.07;101899.41;5048811;28;20105;-82
2023/05/20 10:36:29;;;;;;;3.60;3.00;;;;;;;27.95;27.91;101885.59;5056830;28;20541;-82
2023/05/20 10:38:57;;;;;;;3.72;2.92;;;;;;;27.53;28.22;101878.22;5043810;28;20028;-82
2023/05/20 10:41:25;;;;;;;5.13;2.78;;;;;;;26.50;30.08;101892.69;5041982;28;20490;-82
2023/05/20 10:44:01;;;;;;;2.92;2.60;;;;;;;27.58;29.58;101888.66;5041781;28;20466;-82
2023/05/20 10:46:27;;;;;;;4.95;2.78;;;;;;;27.61;28.95;101882.88;5047595;28;20086;-83
2023/05/20 10:48:52;;;;;;;4.38;2.75;;;;;;;27.96;27.52;101886.44;5041952;28;20025;-83
2023/05/20 10:51:20;;;;;;;3.03;2.78;;;;;;;29.04;26.60;101877.13;5031536;28;20500;-83
2023/05/20 10:53:45;;;;;;;4.28;2.83;;;;;;;29.76;26.27;101877.13;5034621;28;20552;-83
2023/05/20 10:56:20;;;;;;;4.57;3.38;;;;;;;29.37;26.48;101871.56;5051285;28;20111;-83
2023/05/20 10:58:46;;;;;;;3.45;2.97;;;;;;;28.32;26.96;101877.97;5058633;28;20017;-83
2023/05/20 11:01:12;;;;;;;2.92;2.60;;;;;;;29.31;26.52;101874.19;5051568;28;20032;-83
2023/05/20 11:03:39;;;;;;;3.95;2.83;;;;;;;30.50;25.48;101868.41;5045090;28;20363;-83
2023/05/20 11:06:17;;;;;;;3.75;2.70;;;;;;;31.67;25.14;101877.84;5049227;28;20107;-83
2023/05/20 11:08:43;;;;;;;4.97;3.25;;;;;;;30.72;24.40;101861.16;5052609;28;20146;-83
2023/05/20 11:11:10;;;;;;;4.70;2.95;;;;;;;30.94;24.79;101854.81;5041747;28;20024;-83
2023/05/20 11:13:35;;;;;;;4.03;2.90;;;;;;;30.67;24.63;101858.13;5041812;28;20470;-82
2023/05/20 11:16:00;;;;;;;5.35;2.95;;;;;;;29.87;26.04;101864.00;5027882;28;20031;-83
2023/05/20 11:18:30;;;;;;;4.03;2.70;;;;;;;28.75;26.26;101860.38;5025986;28;20032;-82
2023/05/20 11:20:56;;;;;;;2.97;2.30;;;;;;;27.03;29.48;101864.44;5048394;28;20027;-82
2023/05/20 11:23:22;;;;;;;5.65;3.03;;;;;;;26.56;30.36;101862.91;5033913;28;20036;-82